createdAt,value
2022-11-03T00:02:08.094Z,101579.96
2022-11-03T00:07:13.622Z,101571.14
2022-11-03T00:12:19.136Z,101570.80
2022-11-03T00:17:24.613Z,101568.59
2022-11-03T00:22:31.815Z,101570.45
2022-11-03T00:27:37.205Z,101571.66
2022-11-03T00:32:42.595Z,101574.17
2022-11-03T00:37:49.284Z,101573.17
2022-11-03T00:42:54.668Z,101578.79
2022-11-03T00:48:18.168Z,101569.03
2022-11-03T00:53:23.755Z,101575.71
2022-11-03T00:58:29.803Z,101574.44
2022-11-03T01:03:37.493Z,101568.10
2022-11-03T01:08:43.057Z,101574.78
2022-11-03T01:13:48.584Z,101573.45
2022-11-03T01:18:55.623Z,101567.23
2022-11-03T01:24:05.698Z,101569.72
2022-11-03T01:29:11.227Z,101567.83
2022-11-03T01:34:18.838Z,101560.72
2022-11-03T01:39:24.362Z,101553.45
2022-11-03T01:44:32.791Z,101555.19
2022-11-03T01:49:41.348Z,101546.13
2022-11-03T01:54:49.713Z,101546.13
2022-11-03T01:59:58.421Z,101541.06
2022-11-03T02:05:06.094Z,101540.06
2022-11-03T02:10:12.099Z,101539.07
2022-11-03T02:15:20.022Z,101530.37
2022-11-03T02:20:31.362Z,101525.09
2022-11-03T02:25:48.494Z,101529.97
2022-11-03T02:30:57.256Z,101522.81
2022-11-03T02:36:12.015Z,101515.20
2022-11-03T02:41:19.443Z,101511.59
2022-11-03T02:46:27.387Z,101510.66
2022-11-03T02:51:32.773Z,101509.27
2022-11-03T02:56:41.291Z,101509.39
2022-11-03T03:01:50.957Z,101507.13
2022-11-03T03:07:04.537Z,101493.82
2022-11-03T03:12:13.122Z,101496.72
2022-11-03T03:17:21.615Z,101493.77
2022-11-03T03:22:35.795Z,101487.37
2022-11-03T03:27:45.832Z,101470.72
2022-11-03T03:32:53.555Z,101465.31
2022-11-03T03:38:01.985Z,101455.75
2022-11-03T03:43:10.847Z,101463.89
2022-11-03T03:48:16.561Z,101450.94
2022-11-03T03:53:21.997Z,101445.34
2022-11-03T03:58:27.535Z,101449.22
2022-11-03T04:03:33.019Z,101444.78
2022-11-03T04:08:38.609Z,101439.38
2022-11-03T04:14:02.154Z,101437.15
2022-11-03T04:19:29.455Z,101426.25
2022-11-03T04:24:35.087Z,101431.94
2022-11-03T04:29:40.708Z,101436.88
2022-11-03T04:34:49.736Z,101434.14
2022-11-03T04:40:01.443Z,101427.15
2022-11-03T04:45:10.230Z,101414.52
2022-11-03T04:50:24.311Z,101415.17
2022-11-03T04:55:29.838Z,101422.12
2022-11-03T05:00:35.313Z,101417.11
2022-11-03T05:05:40.777Z,101413.39
2022-11-03T05:10:47.217Z,101415.39
2022-11-03T05:15:55.598Z,101411.98
2022-11-03T05:21:04.362Z,101410.09
2022-11-03T05:26:29.251Z,101402.67
2022-11-03T05:31:37.845Z,101393.52
2022-11-03T05:36:44.958Z,101386.58
2022-11-03T05:41:50.860Z,101392.39
2022-11-03T05:47:03.143Z,101388.69
2022-11-03T05:52:10.796Z,101377.27
2022-11-03T05:57:17.923Z,101377.61
2022-11-03T06:02:41.382Z,101385.69
2022-11-03T06:07:47.963Z,101383.39
2022-11-03T06:12:59.028Z,101386.73
2022-11-03T06:18:19.092Z,101386.20
2022-11-03T06:23:24.811Z,101379.37
2022-11-03T06:28:36.887Z,101366.22
2022-11-03T06:33:44.175Z,101367.16
2022-11-03T06:38:55.878Z,101369.76
2022-11-03T06:44:06.848Z,101367.55
2022-11-03T06:49:34.762Z,101372.09
2022-11-03T06:54:40.568Z,101366.98
2022-11-03T06:59:46.768Z,101375.13
2022-11-03T07:04:52.564Z,101374.98
2022-11-03T07:09:58.109Z,101384.55
2022-11-03T07:20:13.124Z,101385.63
2022-11-03T07:25:21.345Z,101387.63
2022-11-03T07:30:29.920Z,101376.11
2022-11-03T07:36:08.940Z,101371.56
2022-11-03T07:40:49.123Z,101372.94
2022-11-03T07:45:57.224Z,101374.06
2022-11-03T07:51:06.338Z,101362.02
2022-11-03T07:56:26.794Z,101365.63
2022-11-03T08:01:50.601Z,101356.58
2022-11-03T08:06:56.330Z,101344.72
2022-11-03T08:12:01.877Z,101344.52
2022-11-03T08:17:07.779Z,101338.58
2022-11-03T08:22:13.403Z,101323.35
2022-11-03T08:27:19.803Z,101323.19
2022-11-03T08:32:25.256Z,101309.43
2022-11-03T08:37:30.777Z,101301.56
2022-11-03T08:42:36.222Z,101310.94
2022-11-03T08:47:42.441Z,101302.67
2022-11-03T08:52:48.216Z,101302.59
2022-11-03T08:57:54.305Z,101295.23
2022-11-03T09:03:00.888Z,101290.52
2022-11-03T09:13:14.265Z,101273.66
2022-11-03T09:18:19.787Z,101274.66
2022-11-03T09:23:26.251Z,101267.13
2022-11-03T09:28:31.630Z,101259.11
2022-11-03T09:33:37.244Z,101258.19
2022-11-03T09:38:42.712Z,101258.58
2022-11-03T09:43:50.114Z,101239.52
2022-11-03T09:48:56.702Z,101230.23
2022-11-03T09:54:05.562Z,101223.98
2022-11-03T09:59:22.785Z,101218.07
2022-11-03T10:04:31.351Z,101217.86
2022-11-03T10:09:37.184Z,101210.00
2022-11-03T10:14:46.146Z,101203.58
2022-11-03T10:19:54.980Z,101196.30
2022-11-03T10:25:39.619Z,101185.62
2022-11-03T10:36:18.370Z,101181.50
2022-11-03T10:41:31.674Z,101174.47
2022-11-03T10:46:50.796Z,101172.42
2022-11-03T10:51:47.711Z,101159.19
2022-11-03T10:56:54.418Z,101151.13
2022-11-03T11:02:01.753Z,101144.82
2022-11-03T11:07:23.447Z,101132.16
2022-11-03T11:12:29.425Z,101121.94
2022-11-03T11:17:43.874Z,101116.48
2022-11-03T11:22:50.905Z,101106.98
2022-11-03T11:27:58.608Z,101100.98
2022-11-03T11:33:16.111Z,101089.97
2022-11-03T11:38:46.983Z,101077.02
2022-11-03T11:43:52.462Z,101074.31
2022-11-03T11:49:06.943Z,101061.11
2022-11-03T11:54:18.741Z,101046.94
2022-11-03T11:59:26.238Z,101046.39
2022-11-03T12:04:33.416Z,101047.13
2022-11-03T12:09:40.477Z,101027.54
2022-11-03T12:14:46.011Z,101039.61
2022-11-03T12:19:53.245Z,101031.91
2022-11-03T12:25:01.190Z,101017.95
2022-11-03T12:30:09.790Z,101021.48
2022-11-03T12:35:15.641Z,101010.55
2022-11-03T12:40:21.232Z,101000.41
2022-11-03T12:45:26.615Z,100989.20
2022-11-03T12:50:32.073Z,100991.75
2022-11-03T12:55:39.359Z,100986.58
2022-11-03T13:00:49.935Z,100986.41
2022-11-03T13:05:51.915Z,100981.61
2022-11-03T13:10:58.701Z,100977.52
2022-11-03T13:16:04.148Z,100972.88
2022-11-03T13:21:09.671Z,100965.33
2022-11-03T13:26:15.277Z,100958.37
2022-11-03T13:31:20.737Z,100952.87
2022-11-03T13:36:26.775Z,100950.02
2022-11-03T13:41:33.608Z,100934.75
2022-11-03T13:46:39.165Z,100938.42
2022-11-03T13:51:44.556Z,100933.25
2022-11-03T14:07:04.498Z,100920.36
2022-11-03T14:12:27.806Z,100914.89
2022-11-03T14:17:33.434Z,100913.26
2022-11-03T14:22:39.874Z,100897.43
2022-11-03T14:27:45.350Z,100883.42
2022-11-03T14:32:54.193Z,100881.80
2022-11-03T14:37:58.285Z,100869.59
2022-11-03T14:43:04.131Z,100868.94
2022-11-03T14:48:10.226Z,100860.91
2022-11-03T14:53:16.045Z,100855.20
2022-11-03T14:58:21.677Z,100850.69
2022-11-03T15:03:27.349Z,100840.81
2022-11-03T15:08:32.882Z,100822.04
2022-11-03T15:13:44.045Z,100810.08
2022-11-03T15:18:46.439Z,100807.52
2022-11-03T15:28:59.257Z,100793.52
2022-11-03T15:34:07.798Z,100792.81
2022-11-03T15:39:13.647Z,100791.88
2022-11-03T15:44:20.264Z,100782.17
2022-11-03T15:49:26.439Z,100772.64
2022-11-03T15:54:31.985Z,100763.78
2022-11-03T15:59:38.476Z,100767.64
2022-11-03T16:04:44.367Z,100755.86
2022-11-03T16:09:49.953Z,100742.50
2022-11-03T16:14:56.062Z,100731.90
2022-11-03T16:20:01.646Z,100725.22
2022-11-03T16:25:12.735Z,100728.41
2022-11-03T16:30:16.293Z,100726.21
2022-11-03T16:35:22.445Z,100714.33
2022-11-03T16:40:28.170Z,100707.27
2022-11-03T16:45:37.651Z,100687.34
2022-11-03T16:50:44.495Z,100687.99
2022-11-03T16:55:49.746Z,100684.09
2022-11-03T17:00:55.491Z,100674.91
2022-11-03T17:06:01.313Z,100663.34
2022-11-03T17:11:08.437Z,100658.09
2022-11-03T17:16:13.883Z,100656.38
2022-11-03T17:21:19.342Z,100646.84
2022-11-03T17:26:27.858Z,100633.66
2022-11-03T17:31:33.378Z,100627.34
2022-11-03T17:36:38.901Z,100611.41
2022-11-03T17:41:44.454Z,100608.75
2022-11-03T17:46:49.992Z,100600.61
2022-11-03T17:51:55.610Z,100598.61
2022-11-03T17:57:02.844Z,100586.11
2022-11-03T18:02:11.635Z,100584.29
2022-11-03T18:07:28.586Z,100583.25
2022-11-03T18:12:57.942Z,100576.63
2022-11-03T18:18:05.743Z,100556.97
2022-11-03T18:23:17.380Z,100555.67
2022-11-03T18:28:23.109Z,100549.34
2022-11-03T18:33:32.375Z,100535.11
2022-11-03T18:38:39.951Z,100527.66
2022-11-03T18:43:45.651Z,100517.27
2022-11-03T18:48:51.253Z,100492.41
2022-11-03T18:53:56.879Z,100478.05
2022-11-03T18:59:02.599Z,100468.45
2022-11-03T19:04:12.749Z,100475.80
2022-11-03T19:09:21.430Z,100458.52
2022-11-03T19:14:32.983Z,100438.99
2022-11-03T19:19:38.465Z,100429.42
2022-11-03T19:24:47.169Z,100427.39
2022-11-03T19:29:53.198Z,100423.27
2022-11-03T19:35:02.798Z,100408.25
2022-11-03T19:40:10.746Z,100402.81
2022-11-03T19:45:18.779Z,100388.11
2022-11-03T19:50:30.401Z,100383.75
2022-11-03T19:55:39.062Z,100381.41
2022-11-03T20:00:45.579Z,100372.79
2022-11-03T20:05:54.135Z,100353.97
2022-11-03T20:11:00.069Z,100344.11
2022-11-03T20:16:09.421Z,100347.44
2022-11-03T20:21:17.832Z,100333.77
2022-11-03T20:26:25.701Z,100324.36
2022-11-03T20:31:31.257Z,100315.47
2022-11-03T20:36:36.809Z,100318.39
2022-11-03T20:41:45.233Z,100299.16
2022-11-03T20:46:50.801Z,100289.95
2022-11-03T20:51:56.362Z,100301.11
2022-11-03T20:57:01.835Z,100271.58
2022-11-03T21:02:14.473Z,100255.55
2022-11-03T21:07:20.359Z,100246.08
2022-11-03T21:12:25.908Z,100227.89
2022-11-03T21:17:49.651Z,100220.27
2022-11-03T21:22:55.203Z,100212.13
2022-11-03T21:28:00.770Z,100220.27
2022-11-03T21:33:06.476Z,100215.19
2022-11-03T21:38:12.669Z,100216.56
2022-11-03T21:43:37.577Z,100213.09
2022-11-03T21:48:59.973Z,100206.57
2022-11-03T21:54:05.785Z,100197.52
2022-11-03T21:59:11.400Z,100198.27
2022-11-03T22:04:17.771Z,100202.28
2022-11-03T22:09:24.293Z,100195.33
2022-11-03T22:14:31.493Z,100188.91
2022-11-03T22:19:55.934Z,100185.95
2022-11-03T22:25:20.204Z,100181.73
2022-11-03T22:30:43.802Z,100177.24
2022-11-03T22:36:10.421Z,100174.19
2022-11-03T22:41:34.015Z,100167.60
2022-11-03T22:46:39.713Z,100165.61
2022-11-03T22:51:45.184Z,100154.33
2022-11-03T22:56:50.540Z,100151.45
2022-11-03T23:01:56.216Z,100147.78
2022-11-03T23:07:01.810Z,100141.23
2022-11-03T23:12:07.577Z,100137.08
2022-11-03T23:17:13.179Z,100127.58
2022-11-03T23:22:18.633Z,100117.27
2022-11-03T23:27:24.111Z,100112.03
2022-11-03T23:32:29.710Z,100110.59
2022-11-03T23:37:35.241Z,100102.18
2022-11-03T23:42:40.765Z,100092.06
2022-11-03T23:48:04.269Z,100086.71
2022-11-03T23:53:09.796Z,100089.28
2022-11-03T23:58:21.716Z,100083.45
